sensor_id;sensor_type;location;lat;lon;timestamp;temperature;humidity
58529;DHT22;44322;52.968;5.816;2022-11-14T00:00:26;5.60;99.90
58529;DHT22;44322;52.968;5.816;2022-11-14T00:03:11;5.70;99.90
58529;DHT22;44322;52.968;5.816;2022-11-14T00:05:56;5.70;99.90
58529;DHT22;44322;52.968;5.816;2022-11-14T00:08:41;5.70;99.90
58529;DHT22;44322;52.968;5.816;2022-11-14T00:11:25;5.70;99.90
58529;DHT22;44322;52.968;5.816;2022-11-14T00:14:10;5.80;99.90
58529;DHT22;44322;52.968;5.816;2022-11-14T00:16:55;5.70;99.90
58529;DHT22;44322;52.968;5.816;2022-11-14T00:19:39;5.80;99.90
58529;DHT22;44322;52.968;5.816;2022-11-14T00:22:27;5.80;99.90
58529;DHT22;44322;52.968;5.816;2022-11-14T00:25:11;5.80;99.90
58529;DHT22;44322;52.968;5.816;2022-11-14T00:27:56;5.80;99.90
58529;DHT22;44322;52.968;5.816;2022-11-14T00:30:48;5.80;99.90
58529;DHT22;44322;52.968;5.816;2022-11-14T00:33:32;5.80;99.90
58529;DHT22;44322;52.968;5.816;2022-11-14T00:36:16;5.80;99.90
58529;DHT22;44322;52.968;5.816;2022-11-14T00:39:01;5.90;99.90
58529;DHT22;44322;52.968;5.816;2022-11-14T00:41:56;5.90;99.90
58529;DHT22;44322;52.968;5.816;2022-11-14T00:44:41;5.90;99.90
58529;DHT22;44322;52.968;5.816;2022-11-14T00:47:30;5.90;99.90
58529;DHT22;44322;52.968;5.816;2022-11-14T00:50:22;5.90;99.90
58529;DHT22;44322;52.968;5.816;2022-11-14T00:53:12;6.00;99.90
58529;DHT22;44322;52.968;5.816;2022-11-14T00:56:02;6.00;99.90
58529;DHT22;44322;52.968;5.816;2022-11-14T00:58:54;6.00;99.90
58529;DHT22;44322;52.968;5.816;2022-11-14T01:01:40;6.00;99.90
58529;DHT22;44322;52.968;5.816;2022-11-14T01:04:58;6.10;99.90
58529;DHT22;44322;52.968;5.816;2022-11-14T01:54:08;6.40;99.90
58529;DHT22;44322;52.968;5.816;2022-11-14T01:57:00;6.40;99.90
58529;DHT22;44322;52.968;5.816;2022-11-14T01:59:52;6.40;99.90
58529;DHT22;44322;52.968;5.816;2022-11-14T02:02:40;6.50;99.90
58529;DHT22;44322;52.968;5.816;2022-11-14T02:05:27;6.50;99.90
58529;DHT22;44322;52.968;5.816;2022-11-14T02:08:15;6.50;99.90
58529;DHT22;44322;52.968;5.816;2022-11-14T02:11:01;6.50;99.90
58529;DHT22;44322;52.968;5.816;2022-11-14T02:13:46;6.50;99.90
58529;DHT22;44322;52.968;5.816;2022-11-14T02:16:33;6.50;99.90
58529;DHT22;44322;52.968;5.816;2022-11-14T02:19:19;6.50;99.90
58529;DHT22;44322;52.968;5.816;2022-11-14T02:22:08;6.50;99.90
58529;DHT22;44322;52.968;5.816;2022-11-14T02:24:56;6.60;99.90
58529;DHT22;44322;52.968;5.816;2022-11-14T02:27:42;6.50;99.90
58529;DHT22;44322;52.968;5.816;2022-11-14T02:30:26;6.60;99.90
58529;DHT22;44322;52.968;5.816;2022-11-14T02:33:15;6.50;99.90
58529;DHT22;44322;52.968;5.816;2022-11-14T02:36:01;6.50;99.90
58529;DHT22;44322;52.968;5.816;2022-11-14T02:38:46;6.60;99.90
58529;DHT22;44322;52.968;5.816;2022-11-14T02:41:31;6.60;99.90
58529;DHT22;44322;52.968;5.816;2022-11-14T02:44:17;6.60;99.90
58529;DHT22;44322;52.968;5.816;2022-11-14T02:47:04;6.50;99.90
58529;DHT22;44322;52.968;5.816;2022-11-14T02:49:52;6.50;99.90
58529;DHT22;44322;52.968;5.816;2022-11-14T02:52:37;6.50;99.90
58529;DHT22;44322;52.968;5.816;2022-11-14T02:55:21;6.50;99.90
58529;DHT22;44322;52.968;5.816;2022-11-14T02:58:06;6.50;99.90
58529;DHT22;44322;52.968;5.816;2022-11-14T03:00:51;6.50;99.90
58529;DHT22;44322;52.968;5.816;2022-11-14T03:03:36;6.50;99.90
58529;DHT22;44322;52.968;5.816;2022-11-14T03:06:22;6.40;99.90
58529;DHT22;44322;52.968;5.816;2022-11-14T03:09:07;6.40;99.90
58529;DHT22;44322;52.968;5.816;2022-11-14T03:11:53;6.40;99.90
58529;DHT22;44322;52.968;5.816;2022-11-14T03:14:39;6.40;99.90
58529;DHT22;44322;52.968;5.816;2022-11-14T03:17:24;6.40;99.90
58529;DHT22;44322;52.968;5.816;2022-11-14T03:20:10;6.40;99.90
58529;DHT22;44322;52.968;5.816;2022-11-14T03:22:57;6.40;99.90
58529;DHT22;44322;52.968;5.816;2022-11-14T03:25:42;6.40;99.90
58529;DHT22;44322;52.968;5.816;2022-11-14T03:28:28;6.40;99.90
58529;DHT22;44322;52.968;5.816;2022-11-14T03:31:13;6.40;99.90
58529;DHT22;44322;52.968;5.816;2022-11-14T03:33:59;6.40;99.90
58529;DHT22;44322;52.968;5.816;2022-11-14T03:36:44;6.50;99.90
58529;DHT22;44322;52.968;5.816;2022-11-14T03:39:29;6.50;99.90
58529;DHT22;44322;52.968;5.816;2022-11-14T03:42:15;6.50;99.90
58529;DHT22;44322;52.968;5.816;2022-11-14T03:45:00;6.50;99.90
58529;DHT22;44322;52.968;5.816;2022-11-14T03:47:45;6.50;99.90
58529;DHT22;44322;52.968;5.816;2022-11-14T03:50:31;6.50;99.90
58529;DHT22;44322;52.968;5.816;2022-11-14T03:53:16;6.50;99.90
58529;DHT22;44322;52.968;5.816;2022-11-14T03:56:01;6.50;99.90
58529;DHT22;44322;52.968;5.816;2022-11-14T03:58:46;6.50;99.90
58529;DHT22;44322;52.968;5.816;2022-11-14T04:01:31;6.50;99.90
58529;DHT22;44322;52.968;5.816;2022-11-14T04:04:17;6.50;99.90
58529;DHT22;44322;52.968;5.816;2022-11-14T04:07:03;6.50;99.90
58529;DHT22;44322;52.968;5.816;2022-11-14T04:09:48;6.50;99.90
58529;DHT22;44322;52.968;5.816;2022-11-14T04:12:33;6.50;99.90
58529;DHT22;44322;52.968;5.816;2022-11-14T04:15:18;6.50;99.90
58529;DHT22;44322;52.968;5.816;2022-11-14T04:18:08;6.40;99.90
58529;DHT22;44322;52.968;5.816;2022-11-14T04:21:29;6.40;99.90
58529;DHT22;44322;52.968;5.816;2022-11-14T04:25:04;6.40;99.90
58529;DHT22;44322;52.968;5.816;2022-11-14T04:28:15;6.40;99.90
58529;DHT22;44322;52.968;5.816;2022-11-14T04:31:46;6.40;99.90
58529;DHT22;44322;52.968;5.816;2022-11-14T04:38:36;6.40;99.90
58529;DHT22;44322;52.968;5.816;2022-11-14T04:41:50;6.30;99.90
58529;DHT22;44322;52.968;5.816;2022-11-14T04:44:34;6.30;99.90
58529;DHT22;44322;52.968;5.816;2022-11-14T04:47:19;6.30;99.90
58529;DHT22;44322;52.968;5.816;2022-11-14T04:50:03;6.30;99.90
58529;DHT22;44322;52.968;5.816;2022-11-14T04:52:51;6.30;99.90
58529;DHT22;44322;52.968;5.816;2022-11-14T04:55:36;6.30;99.90
58529;DHT22;44322;52.968;5.816;2022-11-14T04:58:20;6.20;99.90
58529;DHT22;44322;52.968;5.816;2022-11-14T05:01:08;6.20;99.90
58529;DHT22;44322;52.968;5.816;2022-11-14T05:03:54;6.20;99.90
58529;DHT22;44322;52.968;5.816;2022-11-14T05:06:38;6.10;99.90
58529;DHT22;44322;52.968;5.816;2022-11-14T05:09:22;6.10;99.90
58529;DHT22;44322;52.968;5.816;2022-11-14T05:12:06;6.10;99.90
58529;DHT22;44322;52.968;5.816;2022-11-14T05:14:51;6.10;99.90
58529;DHT22;44322;52.968;5.816;2022-11-14T05:17:35;6.10;99.90
58529;DHT22;44322;52.968;5.816;2022-11-14T05:20:20;6.00;99.90
58529;DHT22;44322;52.968;5.816;2022-11-14T05:23:05;6.00;99.90
58529;DHT22;44322;52.968;5.816;2022-11-14T05:28:47;6.00;99.90
58529;DHT22;44322;52.968;5.816;2022-11-14T05:31:32;6.00;99.90
58529;DHT22;44322;52.968;5.816;2022-11-14T05:34:16;5.90;99.90
58529;DHT22;44322;52.968;5.816;2022-11-14T05:37:01;5.90;99.90
58529;DHT22;44322;52.968;5.816;2022-11-14T05:39:47;5.90;99.90
58529;DHT22;44322;52.968;5.816;2022-11-14T05:42:31;5.90;99.90
58529;DHT22;44322;52.968;5.816;2022-11-14T05:45:16;5.90;99.90
58529;DHT22;44322;52.968;5.816;2022-11-14T05:48:00;5.90;99.90
58529;DHT22;44322;52.968;5.816;2022-11-14T05:50:44;5.90;99.90
58529;DHT22;44322;52.968;5.816;2022-11-14T05:53:30;5.90;99.90
58529;DHT22;44322;52.968;5.816;2022-11-14T05:56:16;5.90;99.90
58529;DHT22;44322;52.968;5.816;2022-11-14T05:59:00;5.90;99.90
58529;DHT22;44322;52.968;5.816;2022-11-14T06:01:45;5.90;99.90
58529;DHT22;44322;52.968;5.816;2022-11-14T06:04:29;5.90;99.90
58529;DHT22;44322;52.968;5.816;2022-11-14T06:07:14;5.90;99.90
58529;DHT22;44322;52.968;5.816;2022-11-14T06:09:58;5.90;99.90
58529;DHT22;44322;52.968;5.816;2022-11-14T06:12:43;5.90;99.90
58529;DHT22;44322;52.968;5.816;2022-11-14T06:15:27;5.90;99.90
58529;DHT22;44322;52.968;5.816;2022-11-14T06:18:12;5.90;99.90
58529;DHT22;44322;52.968;5.816;2022-11-14T06:21:07;6.00;99.90
58529;DHT22;44322;52.968;5.816;2022-11-14T06:23:53;5.90;99.90
58529;DHT22;44322;52.968;5.816;2022-11-14T06:26:37;6.00;99.90
58529;DHT22;44322;52.968;5.816;2022-11-14T06:29:22;6.00;99.90
58529;DHT22;44322;52.968;5.816;2022-11-14T06:32:06;6.00;99.90
58529;DHT22;44322;52.968;5.816;2022-11-14T06:34:51;6.00;99.90
58529;DHT22;44322;52.968;5.816;2022-11-14T06:37:35;6.00;99.90
58529;DHT22;44322;52.968;5.816;2022-11-14T06:40:23;6.00;99.90
58529;DHT22;44322;52.968;5.816;2022-11-14T06:43:07;6.00;99.90
58529;DHT22;44322;52.968;5.816;2022-11-14T06:45:53;6.00;99.90
58529;DHT22;44322;52.968;5.816;2022-11-14T06:48:39;6.00;99.90
58529;DHT22;44322;52.968;5.816;2022-11-14T06:51:23;6.00;99.90
58529;DHT22;44322;52.968;5.816;2022-11-14T06:54:10;6.00;99.90
58529;DHT22;44322;52.968;5.816;2022-11-14T06:56:55;6.00;99.90
58529;DHT22;44322;52.968;5.816;2022-11-14T06:59:40;6.00;99.90
58529;DHT22;44322;52.968;5.816;2022-11-14T07:02:24;6.00;99.90
58529;DHT22;44322;52.968;5.816;2022-11-14T07:05:08;6.00;99.90
58529;DHT22;44322;52.968;5.816;2022-11-14T07:07:53;6.00;99.90
58529;DHT22;44322;52.968;5.816;2022-11-14T07:10:38;6.00;99.90
58529;DHT22;44322;52.968;5.816;2022-11-14T07:13:22;6.00;99.90
58529;DHT22;44322;52.968;5.816;2022-11-14T07:16:06;6.00;99.90
58529;DHT22;44322;52.968;5.816;2022-11-14T07:18:51;6.00;99.90
58529;DHT22;44322;52.968;5.816;2022-11-14T07:21:36;6.00;99.90
58529;DHT22;44322;52.968;5.816;2022-11-14T07:24:20;6.00;99.90
58529;DHT22;44322;52.968;5.816;2022-11-14T07:27:04;6.00;99.90
58529;DHT22;44322;52.968;5.816;2022-11-14T07:29:52;6.00;99.90
58529;DHT22;44322;52.968;5.816;2022-11-14T07:32:36;6.00;99.90
58529;DHT22;44322;52.968;5.816;2022-11-14T07:35:21;6.00;99.90
58529;DHT22;44322;52.968;5.816;2022-11-14T07:38:05;6.00;99.90
58529;DHT22;44322;52.968;5.816;2022-11-14T07:43:41;6.00;99.90
58529;DHT22;44322;52.968;5.816;2022-11-14T07:46:26;6.00;99.90
58529;DHT22;44322;52.968;5.816;2022-11-14T07:49:10;6.00;99.90
58529;DHT22;44322;52.968;5.816;2022-11-14T07:51:55;6.10;99.90
58529;DHT22;44322;52.968;5.816;2022-11-14T07:54:39;6.00;99.90
58529;DHT22;44322;52.968;5.816;2022-11-14T07:57:24;6.10;99.90
58529;DHT22;44322;52.968;5.816;2022-11-14T08:00:09;6.00;99.90
58529;DHT22;44322;52.968;5.816;2022-11-14T08:02:54;6.10;99.90
58529;DHT22;44322;52.968;5.816;2022-11-14T08:05:38;6.00;99.90
58529;DHT22;44322;52.968;5.816;2022-11-14T08:08:23;6.00;99.90
58529;DHT22;44322;52.968;5.816;2022-11-14T08:11:08;6.10;99.90
58529;DHT22;44322;52.968;5.816;2022-11-14T08:13:52;6.10;99.90
58529;DHT22;44322;52.968;5.816;2022-11-14T08:16:37;6.10;99.90
58529;DHT22;44322;52.968;5.816;2022-11-14T08:19:21;6.10;99.90
58529;DHT22;44322;52.968;5.816;2022-11-14T08:22:06;6.10;99.90
58529;DHT22;44322;52.968;5.816;2022-11-14T08:24:50;6.10;99.90
58529;DHT22;44322;52.968;5.816;2022-11-14T08:27:35;6.20;99.90
58529;DHT22;44322;52.968;5.816;2022-11-14T08:30:19;6.20;99.90
58529;DHT22;44322;52.968;5.816;2022-11-14T08:33:04;6.20;99.90
58529;DHT22;44322;52.968;5.816;2022-11-14T08:35:49;6.20;99.90
58529;DHT22;44322;52.968;5.816;2022-11-14T08:38:34;6.20;99.90
58529;DHT22;44322;52.968;5.816;2022-11-14T08:41:18;6.30;99.90
58529;DHT22;44322;52.968;5.816;2022-11-14T08:44:03;6.30;99.90
58529;DHT22;44322;52.968;5.816;2022-11-14T08:46:49;6.30;99.90
58529;DHT22;44322;52.968;5.816;2022-11-14T08:49:34;6.30;99.90
58529;DHT22;44322;52.968;5.816;2022-11-14T08:52:19;6.30;99.90
58529;DHT22;44322;52.968;5.816;2022-11-14T08:55:05;6.40;99.90
58529;DHT22;44322;52.968;5.816;2022-11-14T08:57:52;6.40;99.90
58529;DHT22;44322;52.968;5.816;2022-11-14T09:00:37;6.40;99.90
58529;DHT22;44322;52.968;5.816;2022-11-14T09:03:21;6.40;99.90
58529;DHT22;44322;52.968;5.816;2022-11-14T09:06:05;6.40;99.90
58529;DHT22;44322;52.968;5.816;2022-11-14T09:08:50;6.50;99.90
58529;DHT22;44322;52.968;5.816;2022-11-14T09:11:34;6.50;99.90
58529;DHT22;44322;52.968;5.816;2022-11-14T09:14:19;6.60;99.90
58529;DHT22;44322;52.968;5.816;2022-11-14T09:17:03;6.60;99.90
58529;DHT22;44322;52.968;5.816;2022-11-14T09:19:47;6.70;99.90
58529;DHT22;44322;52.968;5.816;2022-11-14T09:22:32;6.80;99.90
58529;DHT22;44322;52.968;5.816;2022-11-14T09:25:16;7.00;99.90
58529;DHT22;44322;52.968;5.816;2022-11-14T09:28:05;7.30;99.90
58529;DHT22;44322;52.968;5.816;2022-11-14T09:30:50;7.60;99.90
58529;DHT22;44322;52.968;5.816;2022-11-14T09:33:34;7.90;99.90
58529;DHT22;44322;52.968;5.816;2022-11-14T09:36:19;8.10;99.90
58529;DHT22;44322;52.968;5.816;2022-11-14T09:39:04;8.30;99.90
58529;DHT22;44322;52.968;5.816;2022-11-14T09:41:55;8.40;99.90
58529;DHT22;44322;52.968;5.816;2022-11-14T09:44:57;8.60;99.90
58529;DHT22;44322;52.968;5.816;2022-11-14T09:48:08;8.60;99.90
58529;DHT22;44322;52.968;5.816;2022-11-14T09:51:09;8.60;99.90
58529;DHT22;44322;52.968;5.816;2022-11-14T09:54:06;8.60;99.90
58529;DHT22;44322;52.968;5.816;2022-11-14T09:56:54;8.50;99.90
58529;DHT22;44322;52.968;5.816;2022-11-14T09:59:39;8.40;99.90
58529;DHT22;44322;52.968;5.816;2022-11-14T10:21:45;8.20;99.90
58529;DHT22;44322;52.968;5.816;2022-11-14T10:27:32;8.40;99.90
58529;DHT22;44322;52.968;5.816;2022-11-14T10:30:18;8.50;99.90
58529;DHT22;44322;52.968;5.816;2022-11-14T10:33:21;8.60;99.90
58529;DHT22;44322;52.968;5.816;2022-11-14T10:39:44;8.80;99.90
58529;DHT22;44322;52.968;5.816;2022-11-14T10:42:36;9.00;99.90
58529;DHT22;44322;52.968;5.816;2022-11-14T10:45:34;9.10;99.90
58529;DHT22;44322;52.968;5.816;2022-11-14T10:51:11;9.30;99.90
58529;DHT22;44322;52.968;5.816;2022-11-14T10:56:53;9.40;99.90
58529;DHT22;44322;52.968;5.816;2022-11-14T10:59:38;9.50;99.90
58529;DHT22;44322;52.968;5.816;2022-11-14T11:02:22;9.60;99.90
58529;DHT22;44322;52.968;5.816;2022-11-14T11:05:14;9.60;99.90
58529;DHT22;44322;52.968;5.816;2022-11-14T11:07:59;9.70;99.90
58529;DHT22;44322;52.968;5.816;2022-11-14T11:11:03;9.80;99.90
58529;DHT22;44322;52.968;5.816;2022-11-14T11:14:16;9.90;99.90
58529;DHT22;44322;52.968;5.816;2022-11-14T11:17:27;10.00;99.90
58529;DHT22;44322;52.968;5.816;2022-11-14T11:26:00;10.00;99.90
58529;DHT22;44322;52.968;5.816;2022-11-14T11:31:56;10.00;99.90
58529;DHT22;44322;52.968;5.816;2022-11-14T11:34:41;10.00;99.90
58529;DHT22;44322;52.968;5.816;2022-11-14T11:37:55;10.00;99.90
58529;DHT22;44322;52.968;5.816;2022-11-14T11:40:43;10.00;99.90
58529;DHT22;44322;52.968;5.816;2022-11-14T11:43:44;10.00;99.90
58529;DHT22;44322;52.968;5.816;2022-11-14T11:52:33;10.00;99.90
58529;DHT22;44322;52.968;5.816;2022-11-14T11:55:40;10.10;99.90
58529;DHT22;44322;52.968;5.816;2022-11-14T11:58:47;10.10;99.90
58529;DHT22;44322;52.968;5.816;2022-11-14T12:01:32;10.10;99.90
58529;DHT22;44322;52.968;5.816;2022-11-14T12:04:16;10.10;99.90
58529;DHT22;44322;52.968;5.816;2022-11-14T12:09:55;10.20;99.90
58529;DHT22;44322;52.968;5.816;2022-11-14T12:12:50;10.30;99.90
58529;DHT22;44322;52.968;5.816;2022-11-14T12:15:46;10.50;99.90
58529;DHT22;44322;52.968;5.816;2022-11-14T12:25:05;10.80;99.90
58529;DHT22;44322;52.968;5.816;2022-11-14T12:30:58;10.80;99.90
58529;DHT22;44322;52.968;5.816;2022-11-14T12:33:56;10.90;99.90
58529;DHT22;44322;52.968;5.816;2022-11-14T12:36:42;10.90;99.90
58529;DHT22;44322;52.968;5.816;2022-11-14T12:39:29;11.00;99.90
58529;DHT22;44322;52.968;5.816;2022-11-14T12:42:19;11.00;99.90
58529;DHT22;44322;52.968;5.816;2022-11-14T12:54:41;11.30;99.90
58529;DHT22;44322;52.968;5.816;2022-11-14T12:58:08;11.30;99.90
58529;DHT22;44322;52.968;5.816;2022-11-14T13:04:16;11.40;99.90
58529;DHT22;44322;52.968;5.816;2022-11-14T13:10:31;11.40;99.90
58529;DHT22;44322;52.968;5.816;2022-11-14T13:13:16;11.40;99.90
58529;DHT22;44322;52.968;5.816;2022-11-14T13:16:24;11.40;99.90
58529;DHT22;44322;52.968;5.816;2022-11-14T13:19:32;11.50;99.90
58529;DHT22;44322;52.968;5.816;2022-11-14T13:22:45;11.50;99.90
58529;DHT22;44322;52.968;5.816;2022-11-14T13:25:30;11.60;99.90
58529;DHT22;44322;52.968;5.816;2022-11-14T13:28:48;11.60;99.90
58529;DHT22;44322;52.968;5.816;2022-11-14T13:31:44;11.70;99.90
58529;DHT22;44322;52.968;5.816;2022-11-14T13:34:45;11.70;99.90
58529;DHT22;44322;52.968;5.816;2022-11-14T13:47:28;11.80;99.90
58529;DHT22;44322;52.968;5.816;2022-11-14T13:50:24;11.80;99.90
58529;DHT22;44322;52.968;5.816;2022-11-14T13:53:23;11.70;99.90
58529;DHT22;44322;52.968;5.816;2022-11-14T13:59:43;11.60;99.90
58529;DHT22;44322;52.968;5.816;2022-11-14T14:06:11;11.20;99.90
58529;DHT22;44322;52.968;5.816;2022-11-14T14:15:39;10.90;99.90
58529;DHT22;44322;52.968;5.816;2022-11-14T14:21:50;10.80;99.90
58529;DHT22;44322;52.968;5.816;2022-11-14T14:31:17;10.70;99.90
58529;DHT22;44322;52.968;5.816;2022-11-14T14:34:29;10.70;99.90
58529;DHT22;44322;52.968;5.816;2022-11-14T14:37:22;10.60;99.90
58529;DHT22;44322;52.968;5.816;2022-11-14T14:40:29;10.60;99.90
58529;DHT22;44322;52.968;5.816;2022-11-14T14:43:24;10.50;99.90
58529;DHT22;44322;52.968;5.816;2022-11-14T14:46:11;10.50;99.90
58529;DHT22;44322;52.968;5.816;2022-11-14T14:48:55;10.40;99.90
58529;DHT22;44322;52.968;5.816;2022-11-14T14:51:41;10.40;99.90
58529;DHT22;44322;52.968;5.816;2022-11-14T14:54:28;10.30;99.90
58529;DHT22;44322;52.968;5.816;2022-11-14T14:57:17;10.30;99.90
58529;DHT22;44322;52.968;5.816;2022-11-14T15:00:04;10.20;99.90
58529;DHT22;44322;52.968;5.816;2022-11-14T15:02:49;10.10;99.90
58529;DHT22;44322;52.968;5.816;2022-11-14T15:05:33;10.00;99.90
58529;DHT22;44322;52.968;5.816;2022-11-14T15:08:17;9.90;99.90
58529;DHT22;44322;52.968;5.816;2022-11-14T15:11:02;9.80;99.90
58529;DHT22;44322;52.968;5.816;2022-11-14T15:13:51;9.70;99.90
58529;DHT22;44322;52.968;5.816;2022-11-14T15:16:37;9.60;99.90
58529;DHT22;44322;52.968;5.816;2022-11-14T15:19:28;9.60;99.90
58529;DHT22;44322;52.968;5.816;2022-11-14T15:27:54;9.40;99.90
58529;DHT22;44322;52.968;5.816;2022-11-14T15:30:38;9.40;99.90
58529;DHT22;44322;52.968;5.816;2022-11-14T15:33:32;9.40;99.90
58529;DHT22;44322;52.968;5.816;2022-11-14T15:36:17;9.40;99.90
58529;DHT22;44322;52.968;5.816;2022-11-14T15:39:25;9.40;99.90
58529;DHT22;44322;52.968;5.816;2022-11-14T15:45:28;9.30;99.90
58529;DHT22;44322;52.968;5.816;2022-11-14T15:48:14;9.30;99.90
58529;DHT22;44322;52.968;5.816;2022-11-14T15:51:00;9.30;99.90
58529;DHT22;44322;52.968;5.816;2022-11-14T15:53:47;9.30;99.90
58529;DHT22;44322;52.968;5.816;2022-11-14T15:56:32;9.30;99.90
58529;DHT22;44322;52.968;5.816;2022-11-14T15:59:17;9.20;99.90
58529;DHT22;44322;52.968;5.816;2022-11-14T16:02:10;9.20;99.90
58529;DHT22;44322;52.968;5.816;2022-11-14T16:04:57;9.20;99.90
58529;DHT22;44322;52.968;5.816;2022-11-14T16:07:47;9.20;99.90
58529;DHT22;44322;52.968;5.816;2022-11-14T16:10:31;9.10;99.90
58529;DHT22;44322;52.968;5.816;2022-11-14T16:13:16;9.10;99.90
58529;DHT22;44322;52.968;5.816;2022-11-14T16:16:00;9.10;99.90
58529;DHT22;44322;52.968;5.816;2022-11-14T16:18:45;9.10;99.90
58529;DHT22;44322;52.968;5.816;2022-11-14T16:21:29;9.10;99.90
58529;DHT22;44322;52.968;5.816;2022-11-14T16:24:19;9.10;99.90
58529;DHT22;44322;52.968;5.816;2022-11-14T16:27:04;9.10;99.90
58529;DHT22;44322;52.968;5.816;2022-11-14T16:29:48;9.00;99.90
58529;DHT22;44322;52.968;5.816;2022-11-14T16:32:33;9.10;99.90
58529;DHT22;44322;52.968;5.816;2022-11-14T16:35:20;9.00;99.90
58529;DHT22;44322;52.968;5.816;2022-11-14T16:38:04;9.10;99.90
58529;DHT22;44322;52.968;5.816;2022-11-14T16:40:49;9.00;99.90
58529;DHT22;44322;52.968;5.816;2022-11-14T16:43:33;9.00;99.90
58529;DHT22;44322;52.968;5.816;2022-11-14T16:46:18;9.00;99.90
58529;DHT22;44322;52.968;5.816;2022-11-14T16:49:05;9.00;99.90
58529;DHT22;44322;52.968;5.816;2022-11-14T16:51:50;9.00;99.90
58529;DHT22;44322;52.968;5.816;2022-11-14T16:54:35;9.00;99.90
58529;DHT22;44322;52.968;5.816;2022-11-14T16:57:19;9.00;99.90
58529;DHT22;44322;52.968;5.816;2022-11-14T17:00:06;9.00;99.90
58529;DHT22;44322;52.968;5.816;2022-11-14T17:02:51;9.00;99.90
58529;DHT22;44322;52.968;5.816;2022-11-14T17:05:47;9.00;99.90
58529;DHT22;44322;52.968;5.816;2022-11-14T17:08:31;9.00;99.90
58529;DHT22;44322;52.968;5.816;2022-11-14T17:11:16;9.00;99.90
58529;DHT22;44322;52.968;5.816;2022-11-14T17:14:06;9.00;99.90
58529;DHT22;44322;52.968;5.816;2022-11-14T17:16:51;9.00;99.90
58529;DHT22;44322;52.968;5.816;2022-11-14T17:19:36;9.00;99.90
58529;DHT22;44322;52.968;5.816;2022-11-14T17:22:22;8.90;99.90
58529;DHT22;44322;52.968;5.816;2022-11-14T17:25:08;8.90;99.90
58529;DHT22;44322;52.968;5.816;2022-11-14T17:27:52;8.90;99.90
58529;DHT22;44322;52.968;5.816;2022-11-14T17:30:40;8.90;99.90
58529;DHT22;44322;52.968;5.816;2022-11-14T17:33:25;8.90;99.90
58529;DHT22;44322;52.968;5.816;2022-11-14T17:36:10;8.90;99.90
58529;DHT22;44322;52.968;5.816;2022-11-14T17:38:55;8.90;99.90
58529;DHT22;44322;52.968;5.816;2022-11-14T17:41:40;8.90;99.90
58529;DHT22;44322;52.968;5.816;2022-11-14T17:44:24;8.90;99.90
58529;DHT22;44322;52.968;5.816;2022-11-14T17:47:09;8.90;99.90
58529;DHT22;44322;52.968;5.816;2022-11-14T17:49:53;8.80;99.90
58529;DHT22;44322;52.968;5.816;2022-11-14T17:52:38;8.80;99.90
58529;DHT22;44322;52.968;5.816;2022-11-14T17:55:24;8.80;99.90
58529;DHT22;44322;52.968;5.816;2022-11-14T17:58:09;8.80;99.90
58529;DHT22;44322;52.968;5.816;2022-11-14T18:00:54;8.80;99.90
58529;DHT22;44322;52.968;5.816;2022-11-14T18:03:39;8.90;99.90
58529;DHT22;44322;52.968;5.816;2022-11-14T18:06:23;8.80;99.90
58529;DHT22;44322;52.968;5.816;2022-11-14T18:09:08;8.80;99.90
58529;DHT22;44322;52.968;5.816;2022-11-14T18:11:52;8.90;99.90
58529;DHT22;44322;52.968;5.816;2022-11-14T18:14:36;8.80;99.90
58529;DHT22;44322;52.968;5.816;2022-11-14T18:17:21;8.80;99.90
58529;DHT22;44322;52.968;5.816;2022-11-14T18:20:07;8.80;99.90
58529;DHT22;44322;52.968;5.816;2022-11-14T18:22:52;8.80;99.90
58529;DHT22;44322;52.968;5.816;2022-11-14T18:25:36;8.80;99.90
58529;DHT22;44322;52.968;5.816;2022-11-14T18:28:20;8.80;99.90
58529;DHT22;44322;52.968;5.816;2022-11-14T18:31:06;8.80;99.90
58529;DHT22;44322;52.968;5.816;2022-11-14T18:33:53;8.80;99.90
58529;DHT22;44322;52.968;5.816;2022-11-14T18:36:39;8.80;99.90
58529;DHT22;44322;52.968;5.816;2022-11-14T18:39:23;8.80;99.90
58529;DHT22;44322;52.968;5.816;2022-11-14T18:42:09;8.80;99.90
58529;DHT22;44322;52.968;5.816;2022-11-14T18:44:53;8.80;99.90
58529;DHT22;44322;52.968;5.816;2022-11-14T18:47:38;8.80;99.90
58529;DHT22;44322;52.968;5.816;2022-11-14T18:50:22;8.80;99.90
58529;DHT22;44322;52.968;5.816;2022-11-14T18:53:07;8.80;99.90
58529;DHT22;44322;52.968;5.816;2022-11-14T18:55:51;8.80;99.90
58529;DHT22;44322;52.968;5.816;2022-11-14T18:58:36;8.80;99.90
58529;DHT22;44322;52.968;5.816;2022-11-14T19:01:27;8.70;99.90
58529;DHT22;44322;52.968;5.816;2022-11-14T19:04:15;8.70;99.90
58529;DHT22;44322;52.968;5.816;2022-11-14T19:07:00;8.70;99.90
58529;DHT22;44322;52.968;5.816;2022-11-14T19:09:44;8.80;99.90
58529;DHT22;44322;52.968;5.816;2022-11-14T19:12:28;8.80;99.90
58529;DHT22;44322;52.968;5.816;2022-11-14T19:15:13;8.80;99.90
58529;DHT22;44322;52.968;5.816;2022-11-14T19:17:57;8.80;99.90
58529;DHT22;44322;52.968;5.816;2022-11-14T19:20:41;8.80;99.90
58529;DHT22;44322;52.968;5.816;2022-11-14T19:23:27;8.80;99.90
58529;DHT22;44322;52.968;5.816;2022-11-14T19:26:11;8.80;99.90
58529;DHT22;44322;52.968;5.816;2022-11-14T19:29:03;8.80;99.90
58529;DHT22;44322;52.968;5.816;2022-11-14T19:31:48;8.80;99.90
58529;DHT22;44322;52.968;5.816;2022-11-14T19:34:33;8.80;99.90
58529;DHT22;44322;52.968;5.816;2022-11-14T19:37:18;8.80;99.90
58529;DHT22;44322;52.968;5.816;2022-11-14T19:40:09;8.90;99.90
58529;DHT22;44322;52.968;5.816;2022-11-14T19:42:58;8.90;99.90
58529;DHT22;44322;52.968;5.816;2022-11-14T19:45:48;8.80;99.90
58529;DHT22;44322;52.968;5.816;2022-11-14T19:48:34;8.80;99.90
58529;DHT22;44322;52.968;5.816;2022-11-14T19:54:08;8.80;99.90
58529;DHT22;44322;52.968;5.816;2022-11-14T19:56:53;8.90;99.90
58529;DHT22;44322;52.968;5.816;2022-11-14T19:59:37;8.90;99.90
58529;DHT22;44322;52.968;5.816;2022-11-14T20:02:22;8.90;99.90
58529;DHT22;44322;52.968;5.816;2022-11-14T20:05:08;8.90;99.90
58529;DHT22;44322;52.968;5.816;2022-11-14T20:07:53;8.90;99.90
58529;DHT22;44322;52.968;5.816;2022-11-14T20:10:37;8.90;99.90
58529;DHT22;44322;52.968;5.816;2022-11-14T20:13:36;8.90;99.90
58529;DHT22;44322;52.968;5.816;2022-11-14T20:16:23;8.90;99.90
58529;DHT22;44322;52.968;5.816;2022-11-14T20:19:07;8.90;99.90
58529;DHT22;44322;52.968;5.816;2022-11-14T20:21:52;8.90;99.90
58529;DHT22;44322;52.968;5.816;2022-11-14T20:24:36;8.90;99.90
58529;DHT22;44322;52.968;5.816;2022-11-14T20:27:21;8.90;99.90
58529;DHT22;44322;52.968;5.816;2022-11-14T20:30:06;8.90;99.90
58529;DHT22;44322;52.968;5.816;2022-11-14T20:32:50;8.90;99.90
58529;DHT22;44322;52.968;5.816;2022-11-14T20:35:36;8.90;99.90
58529;DHT22;44322;52.968;5.816;2022-11-14T20:38:21;8.90;99.90
58529;DHT22;44322;52.968;5.816;2022-11-14T20:41:05;8.80;99.90
58529;DHT22;44322;52.968;5.816;2022-11-14T20:43:50;8.80;99.90
58529;DHT22;44322;52.968;5.816;2022-11-14T20:46:34;8.90;99.90
58529;DHT22;44322;52.968;5.816;2022-11-14T20:49:19;8.80;99.90
58529;DHT22;44322;52.968;5.816;2022-11-14T20:52:04;8.80;99.90